Time;durP1;ratioP1;P1;durP2;ratioP2;P2;SDS_P1;SDS_P2;PMS_P1;PMS_P2;Temp;Humidity;BMP_temperature;BMP_pressure;BME280_temperature;BME280_humidity;BME280_pressure;Samples;Min_cycle;Max_cycle;Signal;HPM_P1;HPM_P2
2021/07/21 16:21:59;;;;;;;6.40;3.58;;;;;;;;;;10481937;27;20661;-79
2021/07/21 16:27:02;;;;;;;7.18;3.53;;;;;;;;;;10533253;28;20070;-78
2021/07/21 16:32:02;;;;;;;4.90;2.85;;;;;;;;;;10521735;28;20089;-79
2021/07/21 16:37:03;;;;;;;6.35;3.33;;;;;;;;;;10537901;28;20534;-79
2021/07/21 16:42:03;;;;;;;5.30;3.35;;;;;;;;;;10521928;28;20036;-80
2021/07/21 16:47:04;;;;;;;6.70;3.15;;;;;;;;;;10525786;28;20029;-80
2021/07/21 16:52:04;;;;;;;3.83;2.95;;;;;;;;;;10516376;28;20046;-80
2021/07/21 16:57:05;;;;;;;11.40;3.20;;;;;;;;;;10533388;28;20028;-81
2021/07/21 17:02:05;;;;;;;6.07;2.87;;;;;;;;;;10497595;28;20028;-82
2021/07/21 17:07:06;;;;;;;4.93;3.13;;;;;;;;;;10490556;28;20032;-81
2021/07/21 17:12:07;;;;;;;6.60;3.10;;;;;;;;;;10490551;28;20454;-81
2021/07/21 17:17:07;;;;;;;3.97;2.85;;;;;;;;;;10440911;28;20510;-80
2021/07/21 17:22:10;;;;;;;5.60;3.03;;;;;;;;;;10443772;28;20068;-79
2021/07/21 17:27:11;;;;;;;5.03;2.92;;;;;;;;;;10445416;28;20446;-80
2021/07/21 17:32:11;;;;;;;7.88;3.90;;;;;;;;;;10414312;28;20055;-80
2021/07/21 17:37:11;;;;;;;5.50;3.70;;;;;;;;;;10421983;28;20248;-80
2021/07/21 17:42:12;;;;;;;6.73;3.13;;;;;;;;;;10418614;28;20131;-80
2021/07/21 17:47:12;;;;;;;7.90;3.90;;;;;;;;;;10424018;28;20139;-80
2021/07/21 17:52:13;;;;;;;11.63;3.13;;;;;;;;;;10427519;28;20468;-79
2021/07/21 17:57:13;;;;;;;5.07;3.60;;;;;;;;;;10469284;28;20114;-80
2021/07/21 18:02:13;;;;;;;5.67;3.13;;;;;;;;;;10465453;28;20091;-80
2021/07/21 18:07:14;;;;;;;4.30;3.17;;;;;;;;;;10495888;28;20033;-80
2021/07/21 18:12:15;;;;;;;6.13;3.43;;;;;;;;;;10501038;28;20103;-79
2021/07/21 18:17:16;;;;;;;3.95;2.78;;;;;;;;;;10480396;28;20032;-80
2021/07/21 18:22:16;;;;;;;19.83;4.00;;;;;;;;;;10501909;28;20028;-84
2021/07/21 18:27:17;;;;;;;7.13;3.50;;;;;;;;;;10487124;28;20040;-84
2021/07/21 18:32:17;;;;;;;12.43;3.20;;;;;;;;;;10500766;28;20502;-84
2021/07/21 18:37:17;;;;;;;6.20;3.43;;;;;;;;;;10501448;28;20496;-82
2021/07/21 18:42:18;;;;;;;9.20;4.57;;;;;;;;;;10462663;28;20185;-85
2021/07/21 18:47:18;;;;;;;11.35;4.93;;;;;;;;;;10451250;28;20043;-87
2021/07/21 18:52:19;;;;;;;10.32;4.72;;;;;;;;;;10489127;28;20383;-80
2021/07/21 18:57:19;;;;;;;16.17;5.07;;;;;;;;;;10490576;28;20047;-79
2021/07/21 19:02:20;;;;;;;12.10;4.57;;;;;;;;;;10485334;28;20028;-79
2021/07/21 19:07:21;;;;;;;12.90;4.70;;;;;;;;;;10499775;28;20039;-79
2021/07/21 19:12:21;;;;;;;8.63;4.10;;;;;;;;;;10499502;28;20031;-80
2021/07/21 19:17:22;;;;;;;19.60;4.57;;;;;;;;;;10484827;28;20478;-80
2021/07/21 19:22:22;;;;;;;8.27;3.73;;;;;;;;;;10485206;28;20028;-79
2021/07/21 19:27:22;;;;;;;7.73;4.53;;;;;;;;;;10484958;28;20517;-79
2021/07/21 19:32:23;;;;;;;8.65;4.72;;;;;;;;;;10499138;28;20028;-79
2021/07/21 19:37:23;;;;;;;10.53;4.20;;;;;;;;;;10497591;28;20122;-80
2021/07/21 19:42:24;;;;;;;8.38;4.68;;;;;;;;;;10498726;28;20454;-80
2021/07/21 19:47:24;;;;;;;9.18;4.85;;;;;;;;;;10498449;28;20037;-80
2021/07/21 19:52:25;;;;;;;5.73;3.87;;;;;;;;;;10497772;28;20075;-79
2021/07/21 19:57:27;;;;;;;8.82;4.40;;;;;;;;;;10498080;28;20979;-80
2021/07/21 20:02:28;;;;;;;10.23;3.90;;;;;;;;;;10489340;28;20028;-79
2021/07/21 20:07:28;;;;;;;10.73;4.73;;;;;;;;;;10485251;28;20036;-80
2021/07/21 20:12:29;;;;;;;5.10;3.40;;;;;;;;;;10490751;28;20505;-80
2021/07/21 20:17:29;;;;;;;6.70;3.70;;;;;;;;;;10468369;28;20057;-79
2021/07/21 20:22:30;;;;;;;7.67;4.03;;;;;;;;;;10471045;28;20044;-80
2021/07/21 20:27:30;;;;;;;5.60;3.67;;;;;;;;;;10501043;28;20100;-80
2021/07/21 20:32:31;;;;;;;7.45;3.58;;;;;;;;;;10497155;28;20025;-79
2021/07/21 20:37:31;;;;;;;7.40;4.17;;;;;;;;;;10487681;28;20028;-79
2021/07/21 20:42:31;;;;;;;7.67;4.20;;;;;;;;;;10482892;28;20457;-80
2021/07/21 20:47:32;;;;;;;7.17;3.87;;;;;;;;;;10482950;28;20437;-80
2021/07/21 20:52:32;;;;;;;5.40;3.50;;;;;;;;;;10496577;28;20442;-81
2021/07/21 20:57:33;;;;;;;8.23;3.80;;;;;;;;;;10497079;28;20063;-80
2021/07/21 21:02:33;;;;;;;7.25;3.40;;;;;;;;;;10447210;28;20550;-80
2021/07/21 21:07:34;;;;;;;5.20;3.47;;;;;;;;;;10489301;28;20120;-80
2021/07/21 21:12:35;;;;;;;5.45;3.15;;;;;;;;;;10479682;28;20033;-80
2021/07/21 21:17:37;;;;;;;6.57;3.60;;;;;;;;;;10496605;28;20382;-79
2021/07/21 21:22:39;;;;;;;6.22;4.32;;;;;;;;;;10485802;28;20037;-80
2021/07/21 21:27:40;;;;;;;4.13;3.22;;;;;;;;;;10490645;28;20037;-80
2021/07/21 21:32:41;;;;;;;7.65;4.22;;;;;;;;;;10494084;28;20024;-80
2021/07/21 21:37:42;;;;;;;5.82;3.85;;;;;;;;;;10492962;28;20024;-81
2021/07/21 21:42:42;;;;;;;7.57;4.07;;;;;;;;;;10502942;28;20035;-81
2021/07/21 21:47:42;;;;;;;9.48;4.15;;;;;;;;;;10502970;28;20060;-80
2021/07/21 21:52:43;;;;;;;5.70;3.43;;;;;;;;;;10478874;28;20455;-81
2021/07/21 21:57:43;;;;;;;7.23;4.10;;;;;;;;;;10462770;28;20028;-82
2021/07/21 22:02:44;;;;;;;12.77;4.45;;;;;;;;;;10460675;28;20701;-81
2021/07/21 22:07:45;;;;;;;9.60;4.32;;;;;;;;;;10459536;28;20033;-81
2021/07/21 22:12:45;;;;;;;14.23;4.68;;;;;;;;;;10457490;28;20163;-79
2021/07/21 22:17:47;;;;;;;9.43;4.50;;;;;;;;;;10463734;28;20043;-79
2021/07/21 22:22:49;;;;;;;7.63;4.30;;;;;;;;;;10459968;28;20021;-78
2021/07/21 22:28:02;;;;;;;6.82;4.10;;;;;;;;;;10460146;28;20108;-79
2021/07/21 22:33:04;;;;;;;8.05;4.18;;;;;;;;;;10462267;28;20078;-79
2021/07/21 22:38:05;;;;;;;7.38;4.43;;;;;;;;;;10458988;28;20160;-78
2021/07/21 22:43:15;;;;;;;10.63;4.85;;;;;;;;;;10459263;28;20108;-79
2021/07/21 22:48:16;;;;;;;9.23;4.38;;;;;;;;;;10459158;28;20036;-79
2021/07/21 22:53:19;;;;;;;7.38;4.53;;;;;;;;;;10458055;28;20033;-79
2021/07/21 22:58:20;;;;;;;8.07;3.95;;;;;;;;;;10457633;28;20025;-78
2021/07/21 23:03:57;;;;;;;9.05;3.97;;;;;;;;;;10473643;28;20032;-79
2021/07/21 23:09:35;;;;;;;6.55;4.40;;;;;;;;;;10500072;28;20037;-78
2021/07/21 23:15:09;;;;;;;9.38;4.03;;;;;;;;;;10499340;28;20044;-81
2021/07/21 23:20:14;;;;;;;9.70;4.40;;;;;;;;;;10497361;28;20048;-81
2021/07/21 23:25:18;;;;;;;8.18;4.30;;;;;;;;;;10499300;28;20054;-81
2021/07/21 23:30:18;;;;;;;5.88;3.70;;;;;;;;;;10480949;28;20071;-81
2021/07/21 23:35:19;;;;;;;8.32;3.63;;;;;;;;;;10480992;28;20052;-81
2021/07/21 23:40:20;;;;;;;5.65;3.95;;;;;;;;;;10498018;28;20185;-80
2021/07/21 23:45:20;;;;;;;12.70;4.00;;;;;;;;;;10498993;28;20032;-81
2021/07/21 23:50:21;;;;;;;6.33;3.20;;;;;;;;;;10497836;28;20033;-80
2021/07/21 23:55:21;;;;;;;6.22;3.60;;;;;;;;;;10483460;28;20043;-81
